sensor_id;sensor_type;location;lat;lon;timestamp;pressure;altitude;pressure_sealevel;temperature;humidity
4586;BME280;2305;50.118;8.952;2024-03-23T00:54:05;99696.28;;;9.66;100.00
4586;BME280;2305;50.118;8.952;2024-03-23T00:56:34;99696.72;;;9.71;100.00
4586;BME280;2305;50.118;8.952;2024-03-23T00:59:01;99685.66;;;9.77;100.00
4586;BME280;2305;50.118;8.952;2024-03-23T01:01:27;99678.19;;;9.82;100.00
4586;BME280;2305;50.118;8.952;2024-03-23T01:03:54;99675.84;;;9.88;100.00
4586;BME280;2305;50.118;8.952;2024-03-23T01:06:20;99681.41;;;9.95;100.00
4586;BME280;2305;50.118;8.952;2024-03-23T01:08:47;99680.44;;;9.96;100.00
4586;BME280;2305;50.118;8.952;2024-03-23T01:11:15;99667.28;;;9.96;100.00
4586;BME280;2305;50.118;8.952;2024-03-23T01:13:42;99688.88;;;9.90;100.00
4586;BME280;2305;50.118;8.952;2024-03-23T01:16:08;99652.84;;;9.90;100.00
4586;BME280;2305;50.118;8.952;2024-03-23T01:18:35;99640.41;;;9.92;100.00
4586;BME280;2305;50.118;8.952;2024-03-23T01:21:03;99641.66;;;9.98;100.00
4586;BME280;2305;50.118;8.952;2024-03-23T01:23:32;99655.78;;;9.97;100.00
4586;BME280;2305;50.118;8.952;2024-03-23T01:25:58;99668.28;;;10.04;100.00
4586;BME280;2305;50.118;8.952;2024-03-23T01:28:27;99651.25;;;10.08;100.00
4586;BME280;2305;50.118;8.952;2024-03-23T01:30:53;99640.72;;;10.08;100.00
4586;BME280;2305;50.118;8.952;2024-03-23T01:33:22;99639.50;;;10.12;100.00
4586;BME280;2305;50.118;8.952;2024-03-23T01:35:49;99632.53;;;10.11;100.00
4586;BME280;2305;50.118;8.952;2024-03-23T01:38:16;99650.28;;;10.19;100.00
4586;BME280;2305;50.118;8.952;2024-03-23T01:40:44;99624.94;;;10.27;100.00
4586;BME280;2305;50.118;8.952;2024-03-23T01:43:12;99627.56;;;10.27;100.00
4586;BME280;2305;50.118;8.952;2024-03-23T01:45:39;99617.84;;;10.28;100.00
4586;BME280;2305;50.118;8.952;2024-03-23T01:48:07;99607.03;;;10.31;100.00
4586;BME280;2305;50.118;8.952;2024-03-23T01:50:33;99612.88;;;10.34;100.00
4586;BME280;2305;50.118;8.952;2024-03-23T01:53:03;99608.81;;;10.40;100.00
4586;BME280;2305;50.118;8.952;2024-03-23T01:55:31;99608.53;;;10.43;100.00
4586;BME280;2305;50.118;8.952;2024-03-23T01:57:59;99594.25;;;10.45;100.00
4586;BME280;2305;50.118;8.952;2024-03-23T02:00:25;99592.59;;;10.44;100.00
4586;BME280;2305;50.118;8.952;2024-03-23T02:02:55;99587.44;;;10.52;100.00
4586;BME280;2305;50.118;8.952;2024-03-23T02:05:22;99587.19;;;10.46;100.00
4586;BME280;2305;50.118;8.952;2024-03-23T02:07:49;99584.41;;;10.47;100.00
4586;BME280;2305;50.118;8.952;2024-03-23T02:10:16;99577.22;;;10.49;100.00
4586;BME280;2305;50.118;8.952;2024-03-23T02:12:43;99571.22;;;10.47;100.00
4586;BME280;2305;50.118;8.952;2024-03-23T02:15:12;99571.66;;;10.43;100.00
4586;BME280;2305;50.118;8.952;2024-03-23T02:17:39;99563.94;;;10.41;100.00
4586;BME280;2305;50.118;8.952;2024-03-23T02:20:08;99565.16;;;10.47;100.00
4586;BME280;2305;50.118;8.952;2024-03-23T02:22:36;99564.59;;;10.53;100.00
4586;BME280;2305;50.118;8.952;2024-03-23T02:25:05;99558.59;;;10.51;100.00
4586;BME280;2305;50.118;8.952;2024-03-23T02:27:34;99557.66;;;10.52;100.00
4586;BME280;2305;50.118;8.952;2024-03-23T02:30:03;99535.06;;;10.49;100.00
4586;BME280;2305;50.118;8.952;2024-03-23T02:32:30;99534.91;;;10.51;100.00
4586;BME280;2305;50.118;8.952;2024-03-23T02:34:56;99528.97;;;10.49;100.00
4586;BME280;2305;50.118;8.952;2024-03-23T02:37:23;99535.34;;;10.46;100.00
4586;BME280;2305;50.118;8.952;2024-03-23T02:39:49;99528.16;;;10.48;100.00
4586;BME280;2305;50.118;8.952;2024-03-23T02:42:18;99528.41;;;10.45;100.00
4586;BME280;2305;50.118;8.952;2024-03-23T02:44:44;99529.53;;;10.43;100.00
4586;BME280;2305;50.118;8.952;2024-03-23T02:47:11;99523.28;;;10.44;100.00
4586;BME280;2305;50.118;8.952;2024-03-23T02:49:38;99515.38;;;10.44;100.00
4586;BME280;2305;50.118;8.952;2024-03-23T02:52:05;99513.72;;;10.43;100.00
4586;BME280;2305;50.118;8.952;2024-03-23T02:54:31;99511.66;;;10.37;100.00
4586;BME280;2305;50.118;8.952;2024-03-23T02:56:58;99518.06;;;10.34;100.00
4586;BME280;2305;50.118;8.952;2024-03-23T02:59:26;99512.81;;;10.34;100.00
4586;BME280;2305;50.118;8.952;2024-03-23T03:01:53;99510.97;;;10.35;100.00
4586;BME280;2305;50.118;8.952;2024-03-23T03:04:21;99501.44;;;10.34;100.00
4586;BME280;2305;50.118;8.952;2024-03-23T03:06:49;99497.28;;;10.31;100.00
4586;BME280;2305;50.118;8.952;2024-03-23T03:09:15;99496.88;;;10.26;100.00
4586;BME280;2305;50.118;8.952;2024-03-23T03:11:43;99499.38;;;10.28;100.00
4586;BME280;2305;50.118;8.952;2024-03-23T03:14:09;99486.34;;;10.26;100.00
4586;BME280;2305;50.118;8.952;2024-03-23T03:16:37;99495.06;;;10.27;100.00
4586;BME280;2305;50.118;8.952;2024-03-23T03:19:03;99496.88;;;10.26;100.00
4586;BME280;2305;50.118;8.952;2024-03-23T03:21:31;99499.66;;;10.25;100.00
4586;BME280;2305;50.118;8.952;2024-03-23T03:23:58;99502.28;;;10.25;100.00
4586;BME280;2305;50.118;8.952;2024-03-23T03:26:25;99489.41;;;10.22;100.00
4586;BME280;2305;50.118;8.952;2024-03-23T03:28:51;99489.41;;;10.22;100.00
4586;BME280;2305;50.118;8.952;2024-03-23T03:31:18;99487.19;;;10.27;100.00
4586;BME280;2305;50.118;8.952;2024-03-23T03:33:46;99484.13;;;10.31;100.00
4586;BME280;2305;50.118;8.952;2024-03-23T03:36:15;99477.06;;;10.32;100.00
4586;BME280;2305;50.118;8.952;2024-03-23T03:38:41;99480.50;;;10.32;100.00
4586;BME280;2305;50.118;8.952;2024-03-23T03:41:09;99467.34;;;10.32;100.00
4586;BME280;2305;50.118;8.952;2024-03-23T03:43:35;99447.25;;;10.31;100.00
4586;BME280;2305;50.118;8.952;2024-03-23T03:46:02;99459.44;;;10.32;100.00
4586;BME280;2305;50.118;8.952;2024-03-23T03:48:28;99472.59;;;10.32;100.00
4586;BME280;2305;50.118;8.952;2024-03-23T03:50:59;99457.50;;;10.34;100.00
4586;BME280;2305;50.118;8.952;2024-03-23T03:53:26;99470.38;;;10.37;100.00
4586;BME280;2305;50.118;8.952;2024-03-23T03:55:53;99461.50;;;10.38;100.00
4586;BME280;2305;50.118;8.952;2024-03-23T03:58:19;99462.47;;;10.37;100.00
4586;BME280;2305;50.118;8.952;2024-03-23T04:00:46;99466.91;;;10.37;100.00
4586;BME280;2305;50.118;8.952;2024-03-23T04:03:12;99475.63;;;10.37;100.00
4586;BME280;2305;50.118;8.952;2024-03-23T04:05:39;99474.66;;;10.38;100.00
4586;BME280;2305;50.118;8.952;2024-03-23T04:08:07;99469.97;;;10.32;100.00
4586;BME280;2305;50.118;8.952;2024-03-23T04:10:34;99466.41;;;10.24;100.00
4586;BME280;2305;50.118;8.952;2024-03-23T04:13:01;99468.88;;;10.25;100.00
4586;BME280;2305;50.118;8.952;2024-03-23T04:15:30;99462.81;;;10.25;100.00
4586;BME280;2305;50.118;8.952;2024-03-23T04:17:56;99466.78;;;10.29;100.00
4586;BME280;2305;50.118;8.952;2024-03-23T04:20:23;99467.50;;;10.31;100.00
4586;BME280;2305;50.118;8.952;2024-03-23T04:22:49;99461.41;;;10.30;100.00
4586;BME280;2305;50.118;8.952;2024-03-23T04:25:20;99457.91;;;10.30;100.00
4586;BME280;2305;50.118;8.952;2024-03-23T04:27:46;99463.91;;;10.32;100.00
4586;BME280;2305;50.118;8.952;2024-03-23T04:30:13;99479.78;;;10.40;100.00
4586;BME280;2305;50.118;8.952;2024-03-23T04:32:41;99481.88;;;10.36;100.00
4586;BME280;2305;50.118;8.952;2024-03-23T04:35:08;99480.38;;;10.34;100.00
4586;BME280;2305;50.118;8.952;2024-03-23T04:37:35;99495.19;;;10.35;100.00
4586;BME280;2305;50.118;8.952;2024-03-23T04:40:03;99496.38;;;10.50;100.00
4586;BME280;2305;50.118;8.952;2024-03-23T04:42:32;99492.34;;;10.55;100.00
4586;BME280;2305;50.118;8.952;2024-03-23T04:45:01;99480.97;;;10.55;100.00
4586;BME280;2305;50.118;8.952;2024-03-23T04:47:28;99482.47;;;10.67;100.00
4586;BME280;2305;50.118;8.952;2024-03-23T04:49:58;99480.47;;;10.78;100.00
4586;BME280;2305;50.118;8.952;2024-03-23T04:52:27;99488.09;;;10.99;100.00
4586;BME280;2305;50.118;8.952;2024-03-23T04:54:53;99516.38;;;10.79;100.00
4586;BME280;2305;50.118;8.952;2024-03-23T04:57:20;99505.50;;;10.82;100.00
4586;BME280;2305;50.118;8.952;2024-03-23T04:59:49;99494.78;;;10.66;100.00
4586;BME280;2305;50.118;8.952;2024-03-23T05:02:17;99501.94;;;10.47;100.00
4586;BME280;2305;50.118;8.952;2024-03-23T05:04:47;99503.16;;;10.52;100.00
4586;BME280;2305;50.118;8.952;2024-03-23T05:07:13;99516.22;;;10.44;100.00
4586;BME280;2305;50.118;8.952;2024-03-23T05:09:40;99515.28;;;10.36;100.00
4586;BME280;2305;50.118;8.952;2024-03-23T05:12:06;99519.63;;;10.27;100.00
4586;BME280;2305;50.118;8.952;2024-03-23T05:14:33;99535.97;;;10.31;100.00
4586;BME280;2305;50.118;8.952;2024-03-23T05:17:02;99540.25;;;10.32;100.00
4586;BME280;2305;50.118;8.952;2024-03-23T05:19:28;99538.59;;;10.21;100.00
4586;BME280;2305;50.118;8.952;2024-03-23T05:21:58;99537.19;;;10.27;100.00
4586;BME280;2305;50.118;8.952;2024-03-23T05:24:25;99545.41;;;10.14;100.00
4586;BME280;2305;50.118;8.952;2024-03-23T05:26:52;99572.28;;;10.08;100.00
4586;BME280;2305;50.118;8.952;2024-03-23T05:29:20;99595.69;;;10.11;100.00
4586;BME280;2305;50.118;8.952;2024-03-23T05:31:49;99600.41;;;10.08;100.00
4586;BME280;2305;50.118;8.952;2024-03-23T05:34:17;99594.56;;;10.04;100.00
4586;BME280;2305;50.118;8.952;2024-03-23T05:36:44;99604.25;;;9.85;100.00
4586;BME280;2305;50.118;8.952;2024-03-23T05:39:10;99610.63;;;9.82;100.00
4586;BME280;2305;50.118;8.952;2024-03-23T05:41:37;99614.75;;;9.75;100.00
4586;BME280;2305;50.118;8.952;2024-03-23T05:44:04;99631.81;;;9.71;100.00
4586;BME280;2305;50.118;8.952;2024-03-23T05:46:30;99641.22;;;9.64;100.00
4586;BME280;2305;50.118;8.952;2024-03-23T05:49:01;99646.31;;;9.66;100.00
4586;BME280;2305;50.118;8.952;2024-03-23T05:51:29;99654.38;;;9.74;100.00
4586;BME280;2305;50.118;8.952;2024-03-23T05:53:58;99656.28;;;9.53;100.00
4586;BME280;2305;50.118;8.952;2024-03-23T05:56:26;99672.72;;;9.55;100.00
4586;BME280;2305;50.118;8.952;2024-03-23T05:58:53;99682.56;;;9.53;100.00
4586;BME280;2305;50.118;8.952;2024-03-23T06:01:19;99669.16;;;9.65;100.00
4586;BME280;2305;50.118;8.952;2024-03-23T06:03:46;99684.94;;;9.65;100.00
4586;BME280;2305;50.118;8.952;2024-03-23T06:06:13;99686.53;;;9.47;100.00
4586;BME280;2305;50.118;8.952;2024-03-23T06:08:41;99692.41;;;9.60;100.00
4586;BME280;2305;50.118;8.952;2024-03-23T06:11:07;99690.63;;;9.61;100.00
4586;BME280;2305;50.118;8.952;2024-03-23T06:13:34;99698.50;;;9.61;100.00
4586;BME280;2305;50.118;8.952;2024-03-23T06:16:01;99697.41;;;9.63;100.00
4586;BME280;2305;50.118;8.952;2024-03-23T06:18:28;99714.41;;;9.59;100.00
4586;BME280;2305;50.118;8.952;2024-03-23T06:20:56;99713.72;;;9.57;100.00
4586;BME280;2305;50.118;8.952;2024-03-23T06:23:23;99716.19;;;9.49;100.00
4586;BME280;2305;50.118;8.952;2024-03-23T06:25:51;99716.03;;;9.41;100.00
4586;BME280;2305;50.118;8.952;2024-03-23T06:28:18;99714.66;;;9.47;100.00
4586;BME280;2305;50.118;8.952;2024-03-23T06:30:45;99709.50;;;9.45;100.00
4586;BME280;2305;50.118;8.952;2024-03-23T06:33:12;99716.72;;;9.43;100.00
4586;BME280;2305;50.118;8.952;2024-03-23T06:35:39;99708.22;;;9.30;100.00
4586;BME280;2305;50.118;8.952;2024-03-23T06:38:06;99716.53;;;9.35;100.00
4586;BME280;2305;50.118;8.952;2024-03-23T06:40:32;99730.25;;;9.39;100.00
4586;BME280;2305;50.118;8.952;2024-03-23T06:43:00;99734.72;;;9.48;100.00
4586;BME280;2305;50.118;8.952;2024-03-23T06:45:27;99748.44;;;9.51;100.00
4586;BME280;2305;50.118;8.952;2024-03-23T06:47:54;99760.16;;;9.47;100.00
4586;BME280;2305;50.118;8.952;2024-03-23T06:50:21;99780.06;;;9.40;100.00
4586;BME280;2305;50.118;8.952;2024-03-23T06:52:49;99780.63;;;9.44;100.00
4586;BME280;2305;50.118;8.952;2024-03-23T06:55:16;99790.56;;;9.40;100.00
4586;BME280;2305;50.118;8.952;2024-03-23T06:57:43;99800.72;;;9.24;100.00
4586;BME280;2305;50.118;8.952;2024-03-23T07:00:12;99828.16;;;9.31;100.00
4586;BME280;2305;50.118;8.952;2024-03-23T07:02:41;99817.06;;;9.28;100.00
4586;BME280;2305;50.118;8.952;2024-03-23T07:05:07;99827.97;;;9.44;100.00
4586;BME280;2305;50.118;8.952;2024-03-23T07:07:34;99821.94;;;9.32;100.00
4586;BME280;2305;50.118;8.952;2024-03-23T07:10:03;99827.34;;;9.31;100.00
4586;BME280;2305;50.118;8.952;2024-03-23T07:12:32;99820.16;;;9.33;100.00
4586;BME280;2305;50.118;8.952;2024-03-23T07:14:58;99830.63;;;9.23;100.00
4586;BME280;2305;50.118;8.952;2024-03-23T07:17:27;99831.06;;;9.28;100.00
4586;BME280;2305;50.118;8.952;2024-03-23T07:19:53;99841.84;;;9.46;100.00
4586;BME280;2305;50.118;8.952;2024-03-23T07:22:20;99839.06;;;9.47;100.00
4586;BME280;2305;50.118;8.952;2024-03-23T07:24:46;99843.22;;;9.50;100.00
4586;BME280;2305;50.118;8.952;2024-03-23T07:27:15;99856.44;;;9.59;100.00
4586;BME280;2305;50.118;8.952;2024-03-23T07:29:42;99863.56;;;9.48;100.00
4586;BME280;2305;50.118;8.952;2024-03-23T07:32:10;99891.06;;;9.44;100.00
4586;BME280;2305;50.118;8.952;2024-03-23T07:34:38;99892.69;;;9.35;100.00
4586;BME280;2305;50.118;8.952;2024-03-23T07:37:06;99897.44;;;9.41;100.00
4586;BME280;2305;50.118;8.952;2024-03-23T07:39:32;99898.34;;;9.31;100.00
4586;BME280;2305;50.118;8.952;2024-03-23T07:42:00;99914.69;;;9.34;100.00
4586;BME280;2305;50.118;8.952;2024-03-23T07:44:28;99927.56;;;9.37;100.00
4586;BME280;2305;50.118;8.952;2024-03-23T07:46:55;99939.16;;;9.35;100.00
4586;BME280;2305;50.118;8.952;2024-03-23T07:49:22;99938.69;;;9.30;100.00
4586;BME280;2305;50.118;8.952;2024-03-23T07:51:50;99932.34;;;9.32;100.00
4586;BME280;2305;50.118;8.952;2024-03-23T07:54:16;99930.56;;;9.33;100.00
4586;BME280;2305;50.118;8.952;2024-03-23T07:56:43;99930.50;;;9.44;100.00
4586;BME280;2305;50.118;8.952;2024-03-23T07:59:11;99930.84;;;9.50;100.00
4586;BME280;2305;50.118;8.952;2024-03-23T08:01:39;99940.59;;;9.59;100.00
4586;BME280;2305;50.118;8.952;2024-03-23T08:04:07;99940.28;;;9.53;100.00
4586;BME280;2305;50.118;8.952;2024-03-23T08:06:35;99937.38;;;9.56;100.00
4586;BME280;2305;50.118;8.952;2024-03-23T08:09:02;99940.47;;;9.61;100.00
4586;BME280;2305;50.118;8.952;2024-03-23T08:11:34;99958.00;;;9.71;100.00
4586;BME280;2305;50.118;8.952;2024-03-23T08:14:00;99956.19;;;9.92;100.00
4586;BME280;2305;50.118;8.952;2024-03-23T08:16:32;99965.22;;;9.79;100.00
4586;BME280;2305;50.118;8.952;2024-03-23T08:19:00;99985.06;;;9.83;100.00
4586;BME280;2305;50.118;8.952;2024-03-23T08:21:29;99980.84;;;9.91;100.00
4586;BME280;2305;50.118;8.952;2024-03-23T08:23:55;99989.44;;;9.93;100.00
4586;BME280;2305;50.118;8.952;2024-03-23T08:26:27;99977.88;;;9.85;100.00
4586;BME280;2305;50.118;8.952;2024-03-23T08:28:55;99977.09;;;9.73;100.00
4586;BME280;2305;50.118;8.952;2024-03-23T08:31:24;99981.19;;;9.87;100.00
4586;BME280;2305;50.118;8.952;2024-03-23T08:33:50;99990.59;;;10.00;100.00
4586;BME280;2305;50.118;8.952;2024-03-23T08:36:20;99992.75;;;9.95;100.00
4586;BME280;2305;50.118;8.952;2024-03-23T08:38:47;100014.19;;;9.91;100.00
4586;BME280;2305;50.118;8.952;2024-03-23T08:41:16;100001.09;;;9.80;100.00
4586;BME280;2305;50.118;8.952;2024-03-23T08:43:43;100001.56;;;9.64;100.00
4586;BME280;2305;50.118;8.952;2024-03-23T08:46:12;100010.34;;;9.74;100.00
4586;BME280;2305;50.118;8.952;2024-03-23T08:48:39;100013.16;;;9.62;100.00
4586;BME280;2305;50.118;8.952;2024-03-23T08:51:10;100022.94;;;9.91;100.00
4586;BME280;2305;50.118;8.952;2024-03-23T08:53:36;100009.22;;;9.88;100.00
4586;BME280;2305;50.118;8.952;2024-03-23T08:56:05;100012.91;;;9.85;100.00
4586;BME280;2305;50.118;8.952;2024-03-23T08:58:32;100016.44;;;9.75;100.00
4586;BME280;2305;50.118;8.952;2024-03-23T09:01:06;100023.06;;;9.90;100.00
4586;BME280;2305;50.118;8.952;2024-03-23T09:03:33;100026.56;;;10.11;100.00
4586;BME280;2305;50.118;8.952;2024-03-23T09:06:07;100034.75;;;10.17;100.00
4586;BME280;2305;50.118;8.952;2024-03-23T09:08:35;100024.16;;;10.28;100.00
4586;BME280;2305;50.118;8.952;2024-03-23T09:11:06;100020.97;;;10.25;100.00
4586;BME280;2305;50.118;8.952;2024-03-23T09:13:35;100023.72;;;10.23;100.00
4586;BME280;2305;50.118;8.952;2024-03-23T09:16:04;100023.66;;;10.14;100.00
4586;BME280;2305;50.118;8.952;2024-03-23T09:18:32;100040.44;;;10.43;100.00
4586;BME280;2305;50.118;8.952;2024-03-23T09:20:59;100030.25;;;10.49;100.00
4586;BME280;2305;50.118;8.952;2024-03-23T09:23:26;100038.09;;;10.40;100.00
4586;BME280;2305;50.118;8.952;2024-03-23T09:25:55;100042.84;;;10.25;100.00
4586;BME280;2305;50.118;8.952;2024-03-23T09:28:22;100041.69;;;10.39;100.00
4586;BME280;2305;50.118;8.952;2024-03-23T09:41:28;100034.19;;;11.13;100.00
4586;BME280;2305;50.118;8.952;2024-03-23T09:43:56;100043.94;;;11.22;100.00
4586;BME280;2305;50.118;8.952;2024-03-23T09:46:22;100045.16;;;11.18;100.00
4586;BME280;2305;50.118;8.952;2024-03-23T09:48:49;100038.91;;;11.10;100.00
4586;BME280;2305;50.118;8.952;2024-03-23T09:51:15;100047.59;;;11.01;100.00
4586;BME280;2305;50.118;8.952;2024-03-23T09:53:43;100034.28;;;10.93;100.00
4586;BME280;2305;50.118;8.952;2024-03-23T09:56:09;100037.34;;;10.98;100.00
4586;BME280;2305;50.118;8.952;2024-03-23T09:58:38;100029.06;;;11.12;100.00
4586;BME280;2305;50.118;8.952;2024-03-23T10:01:04;100043.97;;;11.41;100.00
4586;BME280;2305;50.118;8.952;2024-03-23T10:03:42;100053.16;;;11.56;100.00
4586;BME280;2305;50.118;8.952;2024-03-23T10:06:08;100051.91;;;11.60;100.00
4586;BME280;2305;50.118;8.952;2024-03-23T10:08:36;100059.41;;;11.55;100.00
4586;BME280;2305;50.118;8.952;2024-03-23T10:11:12;100055.34;;;11.51;100.00
4586;BME280;2305;50.118;8.952;2024-03-23T10:13:47;100056.34;;;11.50;100.00
4586;BME280;2305;50.118;8.952;2024-03-23T10:16:21;100048.38;;;11.31;100.00
4586;BME280;2305;50.118;8.952;2024-03-23T10:18:50;100055.31;;;11.32;100.00
4586;BME280;2305;50.118;8.952;2024-03-23T10:21:16;100054.78;;;11.38;100.00
4586;BME280;2305;50.118;8.952;2024-03-23T10:23:44;100058.94;;;11.31;100.00
4586;BME280;2305;50.118;8.952;2024-03-23T10:26:16;100054.19;;;11.25;100.00
4586;BME280;2305;50.118;8.952;2024-03-23T10:28:53;100049.22;;;11.22;100.00
4586;BME280;2305;50.118;8.952;2024-03-23T10:31:20;100047.69;;;11.29;100.00
4586;BME280;2305;50.118;8.952;2024-03-23T10:33:48;100038.25;;;11.36;99.76
4586;BME280;2305;50.118;8.952;2024-03-23T10:36:15;100033.69;;;11.57;96.89
4586;BME280;2305;50.118;8.952;2024-03-23T10:38:43;100021.06;;;11.89;95.95
4586;BME280;2305;50.118;8.952;2024-03-23T10:41:10;100012.16;;;12.09;94.16
4586;BME280;2305;50.118;8.952;2024-03-23T10:43:38;100010.25;;;12.38;89.64
4586;BME280;2305;50.118;8.952;2024-03-23T10:46:06;100008.94;;;12.25;92.63
4586;BME280;2305;50.118;8.952;2024-03-23T10:48:35;99995.03;;;12.23;89.24
4586;BME280;2305;50.118;8.952;2024-03-23T10:51:01;99983.72;;;12.30;86.59
4586;BME280;2305;50.118;8.952;2024-03-23T10:53:28;99990.84;;;12.57;79.79
4586;BME280;2305;50.118;8.952;2024-03-23T10:55:57;99992.69;;;12.56;81.65
4586;BME280;2305;50.118;8.952;2024-03-23T10:58:27;99992.00;;;12.81;81.99
4586;BME280;2305;50.118;8.952;2024-03-23T11:00:58;99996.56;;;13.16;78.26
4586;BME280;2305;50.118;8.952;2024-03-23T11:03:35;100006.50;;;13.49;75.90
4586;BME280;2305;50.118;8.952;2024-03-23T11:06:03;100018.38;;;13.62;76.89
4586;BME280;2305;50.118;8.952;2024-03-23T11:08:34;100009.66;;;13.69;77.23
4586;BME280;2305;50.118;8.952;2024-03-23T11:11:19;100021.25;;;13.68;76.60
4586;BME280;2305;50.118;8.952;2024-03-23T11:13:48;100015.84;;;13.26;78.07
4586;BME280;2305;50.118;8.952;2024-03-23T11:16:16;100032.00;;;13.05;77.41
4586;BME280;2305;50.118;8.952;2024-03-23T11:18:45;100026.53;;;12.80;77.72
4586;BME280;2305;50.118;8.952;2024-03-23T11:24:20;100077.06;;;11.93;97.83
4586;BME280;2305;50.118;8.952;2024-03-23T11:26:47;100078.66;;;11.46;100.00
4586;BME280;2305;50.118;8.952;2024-03-23T11:29:16;100118.63;;;10.93;100.00
4586;BME280;2305;50.118;8.952;2024-03-23T11:31:46;100111.03;;;10.49;100.00
4586;BME280;2305;50.118;8.952;2024-03-23T11:34:17;100090.22;;;10.25;100.00
4586;BME280;2305;50.118;8.952;2024-03-23T11:36:43;100080.03;;;10.32;100.00
4586;BME280;2305;50.118;8.952;2024-03-23T11:39:14;100073.47;;;10.47;100.00
4586;BME280;2305;50.118;8.952;2024-03-23T11:41:46;100080.91;;;10.42;100.00
4586;BME280;2305;50.118;8.952;2024-03-23T11:44:15;100067.81;;;10.51;100.00
4586;BME280;2305;50.118;8.952;2024-03-23T11:46:41;100068.56;;;10.63;100.00
4586;BME280;2305;50.118;8.952;2024-03-23T11:49:21;100074.50;;;10.55;100.00
4586;BME280;2305;50.118;8.952;2024-03-23T11:51:48;100057.00;;;10.54;100.00
4586;BME280;2305;50.118;8.952;2024-03-23T11:54:20;100059.38;;;10.57;100.00
4586;BME280;2305;50.118;8.952;2024-03-23T11:56:57;100050.00;;;10.44;100.00
4586;BME280;2305;50.118;8.952;2024-03-23T11:59:31;100052.63;;;10.34;100.00
4586;BME280;2305;50.118;8.952;2024-03-23T12:01:58;100054.91;;;10.48;100.00
4586;BME280;2305;50.118;8.952;2024-03-23T12:04:27;100044.16;;;10.40;100.00
4586;BME280;2305;50.118;8.952;2024-03-23T12:07:13;100056.47;;;10.30;100.00
4586;BME280;2305;50.118;8.952;2024-03-23T12:09:43;100051.13;;;10.21;100.00
4586;BME280;2305;50.118;8.952;2024-03-23T12:12:14;100032.84;;;10.19;100.00
4586;BME280;2305;50.118;8.952;2024-03-23T12:14:42;100021.78;;;10.25;100.00
4586;BME280;2305;50.118;8.952;2024-03-23T12:17:12;100011.53;;;10.22;100.00
4586;BME280;2305;50.118;8.952;2024-03-23T12:19:43;100015.94;;;10.22;100.00
4586;BME280;2305;50.118;8.952;2024-03-23T12:22:11;100000.97;;;10.52;100.00
4586;BME280;2305;50.118;8.952;2024-03-23T12:24:39;100004.91;;;10.67;100.00
4586;BME280;2305;50.118;8.952;2024-03-23T12:27:11;99982.66;;;10.90;100.00
4586;BME280;2305;50.118;8.952;2024-03-23T12:29:38;99978.25;;;11.00;100.00
4586;BME280;2305;50.118;8.952;2024-03-23T12:32:05;99968.00;;;11.16;100.00
4586;BME280;2305;50.118;8.952;2024-03-23T12:34:35;99964.28;;;11.28;100.00
4586;BME280;2305;50.118;8.952;2024-03-23T12:37:03;99958.16;;;11.37;100.00
4586;BME280;2305;50.118;8.952;2024-03-23T12:39:31;99948.31;;;11.68;100.00
4586;BME280;2305;50.118;8.952;2024-03-23T12:41:58;99960.66;;;11.77;100.00
4586;BME280;2305;50.118;8.952;2024-03-23T12:44:25;99947.28;;;11.97;100.00
4586;BME280;2305;50.118;8.952;2024-03-23T12:46:51;99955.09;;;12.35;100.00
4586;BME280;2305;50.118;8.952;2024-03-23T12:49:18;99943.06;;;12.50;86.89
4586;BME280;2305;50.118;8.952;2024-03-23T12:51:49;99946.16;;;12.73;86.56
4586;BME280;2305;50.118;8.952;2024-03-23T12:54:21;99966.16;;;13.02;86.29
4586;BME280;2305;50.118;8.952;2024-03-23T12:56:48;99925.09;;;13.25;75.77
4586;BME280;2305;50.118;8.952;2024-03-23T12:59:15;99928.00;;;13.57;74.86
4586;BME280;2305;50.118;8.952;2024-03-23T13:01:45;99934.41;;;13.97;71.70
4586;BME280;2305;50.118;8.952;2024-03-23T13:04:12;99913.44;;;14.04;67.19
4586;BME280;2305;50.118;8.952;2024-03-23T13:06:38;99921.09;;;14.40;65.54
4586;BME280;2305;50.118;8.952;2024-03-23T13:09:06;99922.06;;;14.31;62.97
4586;BME280;2305;50.118;8.952;2024-03-23T13:11:33;99923.56;;;14.34;62.32
4586;BME280;2305;50.118;8.952;2024-03-23T13:14:00;99910.06;;;14.19;60.64
4586;BME280;2305;50.118;8.952;2024-03-23T13:16:26;99926.66;;;14.21;63.26
4586;BME280;2305;50.118;8.952;2024-03-23T13:18:58;99919.22;;;14.25;63.17
4586;BME280;2305;50.118;8.952;2024-03-23T13:21:24;99920.50;;;14.21;62.52
4586;BME280;2305;50.118;8.952;2024-03-23T13:23:51;99921.75;;;14.17;63.18
4586;BME280;2305;50.118;8.952;2024-03-23T13:26:18;99913.06;;;13.99;64.21
4586;BME280;2305;50.118;8.952;2024-03-23T13:28:46;99916.22;;;13.77;63.58
4586;BME280;2305;50.118;8.952;2024-03-23T13:31:13;99928.91;;;13.48;65.95
4586;BME280;2305;50.118;8.952;2024-03-23T13:33:40;99943.50;;;13.17;71.02
4586;BME280;2305;50.118;8.952;2024-03-23T13:36:08;99981.22;;;13.02;72.88
4586;BME280;2305;50.118;8.952;2024-03-23T13:38:35;100046.41;;;12.84;80.35
4586;BME280;2305;50.118;8.952;2024-03-23T13:41:01;100027.41;;;12.34;94.21
4586;BME280;2305;50.118;8.952;2024-03-23T13:43:30;100073.03;;;11.60;100.00
4586;BME280;2305;50.118;8.952;2024-03-23T13:45:58;100083.00;;;10.68;100.00
4586;BME280;2305;50.118;8.952;2024-03-23T13:48:26;100082.34;;;10.05;100.00
4586;BME280;2305;50.118;8.952;2024-03-23T13:50:57;100075.03;;;9.77;100.00
4586;BME280;2305;50.118;8.952;2024-03-23T13:53:24;100084.72;;;9.45;100.00
4586;BME280;2305;50.118;8.952;2024-03-23T13:55:50;100123.56;;;9.41;100.00
4586;BME280;2305;50.118;8.952;2024-03-23T13:58:18;100102.44;;;9.21;100.00
4586;BME280;2305;50.118;8.952;2024-03-23T14:00:47;100109.41;;;8.89;100.00
4586;BME280;2305;50.118;8.952;2024-03-23T14:03:15;100089.09;;;8.80;100.00
4586;BME280;2305;50.118;8.952;2024-03-23T14:05:41;100083.94;;;9.00;100.00
4586;BME280;2305;50.118;8.952;2024-03-23T14:08:10;100074.84;;;9.58;100.00
4586;BME280;2305;50.118;8.952;2024-03-23T14:10:39;100056.09;;;10.14;100.00
4586;BME280;2305;50.118;8.952;2024-03-23T14:13:07;100042.25;;;10.22;100.00
4586;BME280;2305;50.118;8.952;2024-03-23T14:15:33;100036.41;;;10.69;100.00
4586;BME280;2305;50.118;8.952;2024-03-23T14:18:02;100037.53;;;11.15;100.00
4586;BME280;2305;50.118;8.952;2024-03-23T14:20:30;100033.31;;;11.71;100.00
4586;BME280;2305;50.118;8.952;2024-03-23T14:22:58;100032.19;;;11.93;100.00